Flight Track Log - Related Links

Times and Time Zones

All times are in EDT time to prevent confusion due to time zone crossing. See the N42HN flight status page for this flight to view local times or setup timezone preferences in your user account.

Time Position Orientation Groundspeed Altitude Reporting Facility
EDT Latitude Longitude Course Direction KTS MPH feet Rate Location/Type
Sat 04:04:00 PM 38.5334 -121.9373 90° East  Level FlightAware Approximate
Sat 04:04:51 PM 38.1978 -122.3228 90° East 186 214 3,000  Level Oakland Center
Sat 04:05:00 PM 38.5334 -121.7885 90° East  Level FlightAware Approximate
Sat 04:05:52 PM 38.2458 -122.3872 314° West 237 273 6,700  Level Oakland Center
Sat 04:06:00 PM 38.5333 -121.6397 90° East  Level FlightAware Approximate
Sat 04:06:53 PM 38.2733 -122.3108 65° Northeast 254 292 9,800  Level Oakland Center
Sat 04:07:00 PM 38.5333 -121.4910 90° East  Level FlightAware Approximate
Sat 04:07:54 PM 38.2806 -122.2122 85° East 268 308 11,800  Level Oakland Center
Sat 04:08:00 PM 38.5372 -121.3424 85° East  Level FlightAware Approximate
Sat 04:08:55 PM 38.2878 -122.0956 85° East 313 360 14,000  Level Oakland Center
Sat 04:09:00 PM 38.5471 -121.1942 85° East  Level FlightAware Approximate
Sat 04:09:56 PM 38.2964 -121.9694 85° East 345 397 16,400  Level Oakland Center
Sat 04:10:00 PM 38.5500 -121.0455 90° East  Level FlightAware Approximate
Sat 04:10:57 PM 38.3064 -121.8414 84° East 359 413 19,000  Level Oakland Center
Sat 04:11:58 PM 38.3147 -121.7072 85° East 373 429 21,100 2,016 Climbing Oakland Center
Sat 04:12:59 PM 38.3242 -121.5700 85° East 385 443 23,100 1,820 Climbing Oakland Center
Sat 04:14:00 PM 38.3303 -121.4214 87° East 399 459 24,800 1,623 Climbing Oakland Center
Sat 04:15:01 PM 38.3411 -121.2778 84° East 412 474 26,400 1,475 Climbing Oakland Center
Sat 04:16:02 PM 38.3478 -121.1303 87° East 423 487 27,800 1,180 Climbing Oakland Center
Sat 04:17:03 PM 38.3586 -120.9800 85° East 429 494 28,800 1,180 Climbing Oakland Center
Sat 04:18:04 PM 38.3669 -120.8228 86° East 442 509 30,200 1,475 Climbing Oakland Center
Sat 04:19:05 PM 38.3783 -120.6356 86° East 444 511 31,800 1,328 Climbing Oakland Center
Sat 04:20:06 PM 38.3869 -120.4806 86° East 443 510 32,900 984 Climbing Oakland Center
Sat 04:21:07 PM 38.3961 -120.3222 86° East 445 512 33,800 893 Climbing Oakland Center
Sat 04:22:07 PM 38.4033 -120.1611 87° East 452 520 34,700 595 Climbing Oakland Center
Sat 04:23:08 PM 38.4144 -119.9986 85° East 457 526 35,000 148 Climbing Oakland Center
Sat 04:24:09 PM 38.4194 -119.8339 88° East 464 534 35,000  Level Oakland Center
Sat 04:25:10 PM 38.4314 -119.6675 85° East 461 531 35,000 246 Level Oakland Center
Sat 04:26:11 PM 38.4394 -119.5042 86° East 462 532 35,500 885 Climbing Oakland Center
Sat 04:27:12 PM 38.4447 -119.3411 88° East 459 528 36,800 984 Climbing Oakland Center
Sat 04:28:13 PM 38.4522 -119.1839 86° East 446 513 37,500 787 Climbing Oakland Center
Sat 04:29:14 PM 38.4583 -119.0228 87° East 453 521 38,400 829 Climbing Oakland Center
Sat 04:30:16 PM 38.4644 -118.8661 87° East 447 514 39,200 683 Climbing Oakland Center
Sat 04:31:17 PM 38.4722 -118.7103 86° East 443 510 39,800 590 Climbing Oakland Center
Sat 04:32:18 PM 38.4647 -118.5247 93° East 439 505 40,400 541 Climbing Oakland Center
Sat 04:33:19 PM 38.4617 -118.3686 91° East 442 509 40,900 295 Climbing Oakland Center
Sat 04:34:20 PM 38.4531 -118.2119 94° East 444 511 41,000 49 Climbing Oakland Center
Sat 04:35:21 PM 38.4489 -118.0689 92° East 450 518 41,000  Level Oakland Center
Sat 04:36:22 PM 38.4422 -117.9081 93° East 452 520 41,000  Level Oakland Center
Sat 04:37:23 PM 38.4342 -117.7144 93° East 455 524 41,000  Level Oakland Center
Sat 04:38:24 PM 38.4264 -117.5519 93° East 457 526 41,000  Level Oakland Center
Sat 04:39:25 PM 38.4203 -117.3883 93° East 459 528 41,000  Level Oakland Center
Sat 04:40:26 PM 38.4125 -117.2236 93° East 459 528 41,000  Level Oakland Center
Sat 04:41:27 PM 38.4061 -117.0578 93° East 462 532 41,000  Level Oakland Center
Sat 04:42:28 PM 38.3986 -116.8939 93° East 460 529 41,000  Level Oakland Center
Sat 04:43:29 PM 38.3897 -116.7306 94° East 458 527 41,000  Level Oakland Center
Sat 04:44:30 PM 38.3806 -116.5664 94° East 461 531 41,000  Level Oakland Center
Sat 04:45:31 PM 38.3739 -116.4028 93° East 461 531 41,000  Level Oakland Center
Sat 04:46:32 PM 38.3667 -116.2383 93° East 462 532 41,000  Level Oakland Center
Sat 04:47:33 PM 38.3586 -116.0750 94° East 462 532 41,000  Level Oakland Center
Sat 04:49:01 PM 38.3428 -115.8456 95° East 462 532 41,000  Level Salt Lake Center
Sat 04:50:02 PM 38.3342 -115.6822 94° East 462 532 41,000  Level Salt Lake Center
Sat 04:51:04 PM 38.3247 -115.5197 94° East 462 532 41,000  Level Salt Lake Center
Sat 04:52:05 PM 38.3122 -115.3258 95° East 457 526 41,000  Level Salt Lake Center
Sat 04:53:07 PM 38.3039 -115.1836 94° East 458 527 41,000  Level Salt Lake Center
Sat 04:54:08 PM 38.2906 -115.0231 96° East 457 526 41,000  Level Salt Lake Center
Sat 04:55:10 PM 38.2850 -114.8608 92° East 459 528 41,000  Level Salt Lake Center
Sat 04:56:11 PM 38.2669 -114.6689 97° East 455 524 41,000  Level Salt Lake Center
Sat 04:57:13 PM 38.2572 -114.5067 94° East 459 528 41,000  Level Salt Lake Center
Sat 04:58:15 PM 38.2214 -114.3558 107° East 449 517 41,000  Level Salt Lake Center
Sat 04:59:16 PM 38.1994 -114.1975 100° East 452 520 41,000  Level Salt Lake Center
Sat 05:00:18 PM 38.1686 -114.0431 104° East 451 519 41,000  Level Salt Lake Center
Sat 05:01:19 PM 38.1431 -113.8867 102° East 453 521 41,000  Level Salt Lake Center
Sat 05:02:21 PM 38.1133 -113.7333 104° East 448 516 41,000  Level Salt Lake Center
Sat 05:03:22 PM 38.0850 -113.5756 103° East 456 525 41,000  Level Salt Lake Center
Sat 05:04:24 PM 38.0497 -113.3878 103° East 456 525 41,000  Level Salt Lake Center
Sat 05:05:25 PM 38.0219 -113.2294 103° East 457 526 41,000  Level Salt Lake Center
Sat 05:06:27 PM 37.9925 -113.0708 103° East 459 528 41,000  Level Salt Lake Center
Sat 05:07:28 PM 37.9636 -112.9117 103° East 460 529 41,000  Level Salt Lake Center
Sat 05:08:30 PM 37.9328 -112.7525 104° East 461 531 41,000  Level Salt Lake Center
Sat 05:09:31 PM 37.9036 -112.5931 103° East 461 531 41,000  Level Salt Lake Center
Sat 05:10:33 PM 37.8711 -112.4350 105° East 461 531 41,000  Level Salt Lake Center
Sat 05:11:34 PM 37.8422 -112.2761 103° East 461 531 41,000  Level Salt Lake Center
Sat 05:12:36 PM 37.8097 -112.1197 105° East 460 529 41,000  Level Salt Lake Center
Sat 05:13:37 PM 37.7808 -111.9617 103° East 461 531 41,000  Level Salt Lake Center
Sat 05:14:39 PM 37.7475 -111.8067 105° East 459 528 41,000  Level Salt Lake Center
Sat 05:15:40 PM 37.7114 -111.6175 104° East 461 531 41,000  Level Salt Lake Center
Sat 05:16:42 PM 37.6786 -111.4600 105° East 463 533 41,000  Level Salt Lake Center
Sat 05:17:17 PM 37.6583 -111.3631 105° East 468 539 41,000  Level Denver Center
Sat 05:18:18 PM 37.6256 -111.2042 105° East 468 539 41,000  Level Denver Center
Sat 05:19:20 PM 37.5936 -111.0464 104° East 465 535 41,000  Level Denver Center
Sat 05:20:22 PM 37.5619 -110.8900 104° East 462 532 41,000  Level Denver Center
Sat 05:21:23 PM 37.5281 -110.7331 105° East 463 533 41,000  Level Denver Center
Sat 05:22:25 PM 37.4944 -110.5764 105° East 464 534 41,000  Level Denver Center
Sat 05:23:26 PM 37.4628 -110.4197 104° East 463 533 41,000  Level Denver Center
Sat 05:24:28 PM 37.4286 -110.2633 105° East 463 533 41,000  Level Denver Center
Sat 05:25:42 PM 37.3878 -110.0714 105° East 468 539 41,000  Level Denver Center
Sat 05:26:44 PM 37.3497 -109.8947 105° East 468 539 41,000  Level Denver Center
Sat 05:27:45 PM 37.3106 -109.7206 106° East 465 535 41,000  Level Denver Center
Sat 05:28:47 PM 37.2781 -109.5694 105° East 467 537 41,000  Level Denver Center
Sat 05:29:48 PM 37.2444 -109.4186 106° East 468 539 41,000  Level Denver Center
Sat 05:30:50 PM 37.2067 -109.2453 105° East 463 533 41,000  Level Denver Center
Sat 05:31:52 PM 37.1722 -109.0958 106° East 464 534 41,000  Level Denver Center
Sat 05:32:53 PM 37.1342 -108.9219 105° East 463 533 41,000  Level Denver Center
Sat 05:33:55 PM 37.0994 -108.7769 107° East 455 524 41,000  Level Denver Center
Sat 05:34:56 PM 37.0733 -108.6517 105° East 461 531 41,000  Level Denver Center
Sat 05:35:58 PM 37.0261 -108.4569 107° East 457 526 41,000  Level Denver Center
Sat 05:37:00 PM 36.9933 -108.3103 106° East 457 526 41,000  Level Denver Center
Sat 05:38:01 PM 36.9528 -108.1408 107° East 454 522 41,000  Level Denver Center
Sat 05:39:02 PM 36.9239 -108.0169 106° East 460 529 41,000  Level Denver Center
Sat 05:40:04 PM 36.8828 -107.8467 107° East 458 527 41,000  Level Denver Center
Sat 05:41:06 PM 36.8428 -107.6747 106° East 460 529 41,000  Level Denver Center
Sat 05:42:08 PM 36.8069 -107.5267 107° East 463 533 41,000  Level Denver Center
Sat 05:43:09 PM 36.7656 -107.3558 107° East 461 531 41,000  Level Denver Center
Sat 05:44:11 PM 36.7300 -107.2069 107° East 467 537 41,000  Level Denver Center
Sat 05:46:06 PM 36.6578 -106.9128 107° East 464 534 41,000  Level Albuquerque Center
Sat 05:47:07 PM 36.6214 -106.7661 107° East 464 534 41,000  Level Albuquerque Center
Sat 05:48:09 PM 36.5797 -106.5956 107° East 461 531 41,000  Level Albuquerque Center
Sat 05:49:10 PM 36.5411 -106.4486 108° East 464 534 41,000  Level Albuquerque Center
Sat 05:50:11 PM 36.5011 -106.2789 106° East 461 531 41,000  Level Albuquerque Center
Sat 05:51:13 PM 36.4633 -106.1342 108° East 460 529 41,000  Level Albuquerque Center
Sat 05:52:14 PM 36.4292 -106.0014 108° East 459 528 41,000  Level Albuquerque Center
Sat 05:53:16 PM 36.3819 -105.8169 108° East 465 535 41,000  Level Albuquerque Center
Sat 05:54:17 PM 36.3428 -105.6658 108° East 462 532 41,000  Level Albuquerque Center
Sat 05:55:18 PM 36.3061 -105.5258 108° East 455 524 41,000  Level Albuquerque Center
Sat 05:56:20 PM 36.2689 -105.3794 107° East 445 512 41,000  Level Albuquerque Center
Sat 05:57:21 PM 36.2292 -105.2364 109° East 438 504 41,000  Level Albuquerque Center
Sat 05:58:22 PM 36.1908 -105.0878 108° East 443 510 41,000  Level Albuquerque Center
Sat 05:59:25 PM 36.1456 -104.9156 108° East 446 513 41,000 -194 Level Albuquerque Center
Sat 06:00:26 PM 36.1061 -104.7661 108° East 450 518 40,600 -443 Descending Albuquerque Center
Sat 06:01:27 PM 36.0667 -104.6197 108° East 447 514 40,100 -293 Descending Albuquerque Center
Sat 06:02:29 PM 36.0258 -104.4767 109° East 441 507 40,000 -49 Descending Albuquerque Center
Sat 06:03:30 PM 35.9872 -104.3267 108° East 449 517 40,000  Level Albuquerque Center
Sat 06:04:32 PM 35.9453 -104.1750 109° East 459 528 40,000  Level Albuquerque Center
Sat 06:05:33 PM 35.9042 -104.0219 108° East 462 532 40,000 -689 Level Albuquerque Center
Sat 06:06:34 PM 35.8600 -103.8708 110° East 462 532 38,600 -2,146 Descending Albuquerque Center
Sat 06:07:36 PM 35.8183 -103.7175 108° East 465 535 35,600 -2,927 Descending Albuquerque Center
Sat 06:08:37 PM 35.7750 -103.5667 109° East 463 533 32,600 -3,393 Descending Albuquerque Center
Sat 06:09:38 PM 35.7319 -103.4092 109° East 473 544 28,700 -3,393 Descending Albuquerque Center
Sat 06:10:39 PM 35.6881 -103.2564 109° East 470 541 25,700 -2,976 Descending Albuquerque Center
Sat 06:11:41 PM 35.6467 -103.1103 109° East 455 524 22,600 -2,732 Descending Albuquerque Center
Sat 06:12:42 PM 35.6053 -102.9642 109° East 449 517 20,100 -2,115 Descending Albuquerque Center
Sat 06:13:43 PM 35.5636 -102.8186 109° East 448 516 18,300 -1,756 Descending Albuquerque Center
Sat 06:14:45 PM 35.5219 -102.6819 111° Southeast 429 494 16,500 -2,098 Descending Albuquerque Center
Sat 06:15:46 PM 35.4831 -102.5453 109° East 426 490 14,000 -2,066 Descending Albuquerque Center
Sat 06:16:47 PM 35.4392 -102.3947 110° East 390 449 12,300 -1,721 Descending Albuquerque Center
Sat 06:17:48 PM 35.4100 -102.2925 109° East 329 379 10,500 -1,756 Descending Albuquerque Center
Sat 06:18:50 PM 35.4053 -102.1911 93° East 303 349 8,700 -1,707 Descending Albuquerque Center
Sat 06:19:51 PM 35.4056 -102.0933 90° East 289 333 7,000 -1,180 Descending Albuquerque Center
Sat 06:20:52 PM 35.4042 -101.9939 91° East 292 336 6,300 -488 Descending Albuquerque Center
Sat 06:21:54 PM 35.4047 -101.9014 90° East 283 326 6,000 -146 Descending Albuquerque Center
Sat 06:22:55 PM 35.4050 -101.8111 90° East 273 314 6,000  Level Albuquerque Center
Sat 06:23:56 PM 35.4072 -101.7339 88° East 246 283 6,000  Level Albuquerque Center
Sat 06:24:57 PM 35.3831 -101.6792 118° Southeast 220 253 6,000 -195 Level Albuquerque Center
Sat 06:25:59 PM 35.3269 -101.6656 169° South 211 243 5,600 -488 Descending Albuquerque Center
Sat 06:27:00 PM 35.2753 -101.6619 177° South 193 222 5,000 -836 Descending Albuquerque Center
Sat 06:28:01 PM 35.2372 -101.6919 213° Southwest 158 182 3,900 -639 Descending Albuquerque Center
Sat 06:29:02 PM 35.2131 -101.7239 227° Southwest 153 176 3,700 -197 Descending Albuquerque Center

Login

Don't have an account? Register now (free) for customized features, flight alerts, and more!